Time;durP1;ratioP1;P1;durP2;ratioP2;P2;SDS_P1;SDS_P2;PMS_P1;PMS_P2;Temp;Humidity;BMP_temperature;BMP_pressure;BME280_temperature;BME280_humidity;BME280_pressure;Samples;Min_cycle;Max_cycle;Signal;HPM_P1;HPM_P2
2023/12/02 00:00:01;;;;;;;33.63;9.68;;;;;;;-0.16;100.00;98113.88;4950899;28;20043;-41
2023/12/02 00:02:26;;;;;;;26.77;10.38;;;;;;;0.07;100.00;98156.88;4934531;28;21667;-40
2023/12/02 00:04:52;;;;;;;23.65;10.40;;;;;;;-0.08;100.00;98135.00;4945762;29;20039;-41
2023/12/02 00:07:18;;;;;;;27.92;10.68;;;;;;;0.09;100.00;98167.94;4922414;28;20047;-40
2023/12/02 00:09:44;;;;;;;27.10;10.18;;;;;;;0.09;100.00;98163.66;4926129;29;20047;-43
2023/12/02 00:12:10;;;;;;;29.27;10.32;;;;;;;-0.13;100.00;98129.97;4925320;28;20140;-42
2023/12/02 00:14:36;;;;;;;25.67;10.05;;;;;;;0.11;100.00;98177.25;4948235;29;20043;-41
2023/12/02 00:17:02;;;;;;;27.02;10.50;;;;;;;0.12;100.00;98180.66;4954753;28;20141;-41
2023/12/02 00:19:28;;;;;;;26.90;10.88;;;;;;;0.13;100.00;98177.22;4952639;28;20050;-41
2023/12/02 00:21:54;;;;;;;26.98;10.27;;;;;;;-0.15;100.00;98147.03;4953708;28;20043;-40
2023/12/02 00:24:20;;;;;;;28.80;10.98;;;;;;;0.05;100.00;98189.31;4950920;28;20039;-40
2023/12/02 00:26:46;;;;;;;23.08;10.13;;;;;;;0.03;100.00;98188.47;4954913;28;20055;-41
2023/12/02 00:29:12;;;;;;;25.85;9.75;;;;;;;-0.12;100.00;98158.91;4952997;28;20043;-40
2023/12/02 00:31:38;;;;;;;28.90;10.85;;;;;;;0.07;100.00;98192.66;4938622;28;20055;-41
2023/12/02 00:34:04;;;;;;;20.77;10.32;;;;;;;0.08;100.00;98192.63;4940770;28;20047;-40
2023/12/02 00:36:32;;;;;;;25.02;9.95;;;;;;;0.06;100.00;98194.34;4939927;29;20494;-40
2023/12/02 00:38:57;;;;;;;32.75;11.00;;;;;;;-0.02;100.00;98197.06;4923735;29;20577;-40
2023/12/02 00:41:23;;;;;;;25.52;10.13;;;;;;;0.00;100.00;98189.38;4953101;28;20050;-40
2023/12/02 00:43:49;;;;;;;25.20;9.98;;;;;;;-0.02;100.00;98201.31;4952301;28;20047;-41
2023/12/02 00:46:15;;;;;;;24.70;10.65;;;;;;;-0.06;100.00;98199.69;4952683;28;20408;-40
2023/12/02 00:48:41;;;;;;;23.25;8.80;;;;;;;-0.05;100.00;98201.34;4919458;28;20043;-41
2023/12/02 00:51:07;;;;;;;26.20;9.52;;;;;;;-0.12;100.00;98198.06;4949202;28;20047;-42
2023/12/02 00:53:33;;;;;;;25.02;8.50;;;;;;;-0.11;100.00;98204.03;4938006;29;20043;-41
2023/12/02 00:55:59;;;;;;;29.00;10.38;;;;;;;-0.12;100.00;98208.28;4935152;29;20082;-42
2023/12/02 00:58:24;;;;;;;19.38;9.27;;;;;;;-0.14;100.00;98204.06;4949663;28;20039;-41
2023/12/02 01:00:50;;;;;;;26.55;10.70;;;;;;;-0.14;100.00;98204.06;4935195;28;20043;-40
2023/12/02 01:03:16;;;;;;;27.90;10.18;;;;;;;-0.20;100.00;98199.03;4927350;29;20058;-41
2023/12/02 01:05:42;;;;;;;26.63;9.85;;;;;;;-0.18;100.00;98200.72;4936375;29;20050;-41
2023/12/02 01:08:08;;;;;;;25.70;9.80;;;;;;;-0.17;100.00;98197.31;4948887;28;20117;-40
2023/12/02 01:10:33;;;;;;;29.75;9.93;;;;;;;-0.15;100.00;98187.88;4946866;28;20095;-40
2023/12/02 01:12:59;;;;;;;27.67;10.20;;;;;;;-0.31;100.00;98168.56;4932578;29;20137;-41
2023/12/02 01:15:25;;;;;;;26.23;10.50;;;;;;;-0.17;100.00;98207.53;4932436;28;20408;-40
2023/12/02 01:17:51;;;;;;;26.08;10.68;;;;;;;-0.18;100.00;98203.28;4934679;28;20126;-40
2023/12/02 01:20:17;;;;;;;25.63;10.00;;;;;;;-0.22;100.00;98199.09;4932057;28;20901;-41
2023/12/02 01:22:43;;;;;;;26.40;11.10;;;;;;;-0.20;100.00;98201.59;4950005;28;20426;-41
2023/12/02 01:25:09;;;;;;;25.63;10.45;;;;;;;-0.23;100.00;98188.88;4936716;29;20046;-40
2023/12/02 01:27:35;;;;;;;21.63;9.80;;;;;;;-0.21;100.00;98195.63;4949840;28;20047;-42
2023/12/02 01:30:01;;;;;;;26.75;10.40;;;;;;;-0.27;100.00;98198.31;4905028;29;20074;-42
2023/12/02 01:32:30;;;;;;;29.65;11.20;;;;;;;-0.27;100.00;98197.47;4949211;28;20043;-41
2023/12/02 01:34:56;;;;;;;32.78;11.35;;;;;;;-0.31;100.00;98200.91;4900745;28;20059;-42
2023/12/02 01:37:22;;;;;;;28.35;11.45;;;;;;;-0.33;100.00;98202.66;4921617;29;20486;-41
2023/12/02 01:39:48;;;;;;;28.45;10.50;;;;;;;-0.35;100.00;98212.03;4931266;29;20051;-42
2023/12/02 01:42:14;;;;;;;29.75;10.95;;;;;;;-0.45;100.00;98211.31;4935326;29;20090;-40
2023/12/02 01:44:40;;;;;;;28.48;11.15;;;;;;;-0.50;100.00;98219.06;4948019;28;20043;-42
2023/12/02 01:47:06;;;;;;;37.17;11.98;;;;;;;-0.55;100.00;98209.78;4932927;28;20047;-40
2023/12/02 01:49:32;;;;;;;32.50;11.45;;;;;;;-0.56;100.00;98213.19;4950490;28;20094;-41
2023/12/02 01:51:58;;;;;;;31.23;11.88;;;;;;;-0.60;100.00;98220.03;4947816;28;20043;-41
2023/12/02 01:54:24;;;;;;;27.17;10.90;;;;;;;-0.87;100.00;98174.47;4936887;29;20039;-41
2023/12/02 01:56:50;;;;;;;30.33;11.82;;;;;;;-0.64;100.00;98215.00;4948905;28;20094;-41
2023/12/02 01:59:29;;;;;;;29.17;11.60;;;;;;;-0.60;100.00;98219.19;4935139;29;20047;-40
2023/12/02 02:01:54;;;;;;;26.25;9.98;;;;;;;-0.61;100.00;98220.91;4949660;28;20062;-41
2023/12/02 02:04:20;;;;;;;31.20;11.60;;;;;;;-0.59;100.00;98221.75;4916501;29;20039;-42
2023/12/02 02:06:46;;;;;;;26.40;10.25;;;;;;;-0.58;100.00;98227.69;4948405;28;20142;-41
2023/12/02 02:09:12;;;;;;;33.58;12.38;;;;;;;-0.71;100.00;98215.94;4940066;28;20047;-40
2023/12/02 02:11:38;;;;;;;29.33;11.38;;;;;;;-0.60;100.00;98222.59;4948192;28;20461;-41
2023/12/02 02:14:04;;;;;;;31.90;11.50;;;;;;;-0.55;100.00;98231.03;4949400;29;20046;-41
2023/12/02 02:16:30;;;;;;;24.25;10.77;;;;;;;-0.54;100.00;98227.63;4931481;29;20046;-41
2023/12/02 02:18:56;;;;;;;27.08;11.60;;;;;;;-0.52;100.00;98220.78;4947226;28;20130;-41
2023/12/02 02:21:22;;;;;;;31.88;11.85;;;;;;;-0.69;100.00;98193.81;4932529;29;20050;-41
2023/12/02 02:23:48;;;;;;;31.25;11.70;;;;;;;-0.49;100.00;98228.41;4934027;28;20055;-41
2023/12/02 02:26:13;;;;;;;26.85;11.02;;;;;;;-0.47;100.00;98219.00;4949610;28;20047;-40
2023/12/02 02:28:39;;;;;;;26.95;11.07;;;;;;;-0.47;100.00;98218.16;4948069;28;20051;-41
2023/12/02 02:31:05;;;;;;;31.35;11.40;;;;;;;-0.71;100.00;98192.97;4933079;29;20514;-41
2023/12/02 02:33:34;;;;;;;31.35;11.85;;;;;;;-0.61;100.00;98214.97;4947396;28;20693;-40
2023/12/02 02:36:00;;;;;;;28.98;11.05;;;;;;;-0.67;100.00;98217.59;4948731;28;20075;-41
2023/12/02 02:38:26;;;;;;;28.13;10.77;;;;;;;-0.69;100.00;98216.78;4928870;29;20101;-40
2023/12/02 02:40:52;;;;;;;30.85;11.45;;;;;;;-0.75;100.00;98220.25;4917386;29;20486;-41
2023/12/02 02:43:18;;;;;;;28.55;12.10;;;;;;;-0.69;100.00;98230.38;4933465;29;20043;-41
2023/12/02 02:45:44;;;;;;;32.38;12.32;;;;;;;-0.69;99.45;98234.63;4932304;29;20550;-42
2023/12/02 02:48:10;;;;;;;27.90;11.15;;;;;;;-0.68;99.07;98228.69;4930848;28;20039;-41
2023/12/02 02:50:35;;;;;;;32.15;11.23;;;;;;;-0.65;98.66;98237.13;4933444;29;20063;-41
2023/12/02 02:53:01;;;;;;;28.27;12.85;;;;;;;-0.60;98.25;98239.63;4949621;28;20097;-41
2023/12/02 02:55:27;;;;;;;37.42;12.65;;;;;;;-0.58;97.78;98243.00;4945985;28;20035;-41
2023/12/02 02:57:53;;;;;;;29.80;12.27;;;;;;;-0.58;97.37;98250.66;4947257;28;20047;-41
2023/12/02 03:00:19;;;;;;;30.13;11.93;;;;;;;-0.58;96.74;98250.66;4935125;29;20142;-41
2023/12/02 03:02:45;;;;;;;28.10;11.68;;;;;;;-0.60;96.00;98255.78;4948789;28;20042;-41
2023/12/02 03:05:11;;;;;;;31.63;12.20;;;;;;;-0.58;95.61;98255.75;4930598;28;20125;-41
2023/12/02 03:07:37;;;;;;;32.47;11.98;;;;;;;-0.55;95.51;98254.00;4931068;28;20458;-40
2023/12/02 03:10:03;;;;;;;33.10;12.77;;;;;;;-0.54;95.39;98248.03;4952140;28;20151;-40
2023/12/02 03:12:31;;;;;;;33.28;11.75;;;;;;;-0.51;95.13;98245.44;4948694;28;20117;-41
2023/12/02 03:14:58;;;;;;;30.17;11.95;;;;;;;-0.50;94.19;98254.78;4934224;29;20046;-40
2023/12/02 03:17:23;;;;;;;29.75;10.98;;;;;;;-0.81;93.97;98205.03;4933717;29;20043;-41
2023/12/02 03:19:49;;;;;;;29.17;12.05;;;;;;;-0.50;93.44;98275.22;4931278;28;20541;-40
2023/12/02 03:22:15;;;;;;;33.75;12.20;;;;;;;-0.62;91.86;98272.81;4946698;28;20054;-40
2023/12/02 03:24:42;;;;;;;27.85;11.55;;;;;;;-0.81;90.90;98273.06;4917890;28;20078;-39
2023/12/02 03:27:07;;;;;;;29.75;11.77;;;;;;;-0.77;91.25;98274.69;4932984;29;20047;-41
2023/12/02 03:29:33;;;;;;;28.48;11.50;;;;;;;-0.66;90.89;98271.16;4947324;29;20059;-41
2023/12/02 03:31:59;;;;;;;28.10;12.07;;;;;;;-0.58;90.93;98279.59;4900614;29;20059;-39
2023/12/02 03:34:26;;;;;;;30.52;12.70;;;;;;;-0.82;90.26;98231.38;4909700;29;20515;-40
2023/12/02 03:36:52;;;;;;;30.70;11.55;;;;;;;-0.52;89.87;98284.59;4929426;28;20077;-41
2023/12/02 03:39:18;;;;;;;33.28;12.57;;;;;;;-0.48;89.51;98283.69;4946506;28;20043;-40
2023/12/02 03:41:45;;;;;;;34.53;12.02;;;;;;;-0.45;88.74;98293.00;4936323;29;20145;-41
2023/12/02 03:44:11;;;;;;;28.85;12.27;;;;;;;-0.46;88.45;98299.81;4933718;29;20042;-41
2023/12/02 03:46:37;;;;;;;27.83;12.55;;;;;;;-0.46;88.51;98299.81;4946403;28;20055;-41
2023/12/02 03:49:03;;;;;;;30.17;12.18;;;;;;;-0.42;87.93;98298.91;4948105;29;20058;-40
2023/12/02 03:51:30;;;;;;;26.23;11.35;;;;;;;-0.44;87.24;98300.66;4915171;28;20047;-41
2023/12/02 03:53:56;;;;;;;31.20;11.80;;;;;;;-0.47;86.98;98294.72;4947522;28;20146;-41
2023/12/02 03:56:23;;;;;;;28.85;11.55;;;;;;;-0.44;86.34;98297.25;4947490;28;20043;-40
2023/12/02 03:58:50;;;;;;;26.30;11.48;;;;;;;-0.42;86.25;98300.66;4932042;29;20478;-41
2023/12/02 04:01:18;;;;;;;32.47;12.05;;;;;;;-0.44;85.98;98302.38;4947667;28;20672;-42
2023/12/02 04:03:45;;;;;;;30.50;11.93;;;;;;;-0.43;85.56;98298.94;4933645;29;20058;-41
2023/12/02 04:06:11;;;;;;;27.95;10.95;;;;;;;-0.69;84.77;98273.75;4916696;29;20542;-42
2023/12/02 04:08:37;;;;;;;31.20;11.63;;;;;;;-0.54;84.28;98309.28;4948405;28;20487;-42
2023/12/02 04:11:03;;;;;;;32.47;11.75;;;;;;;-0.53;84.26;98305.88;4946973;28;20043;-41
2023/12/02 04:13:29;;;;;;;33.45;12.02;;;;;;;-0.52;83.93;98314.34;4946584;28;20094;-42
2023/12/02 04:15:55;;;;;;;31.15;12.23;;;;;;;-0.53;83.91;98300.78;4933071;28;20035;-41
2023/12/02 04:18:21;;;;;;;32.78;12.15;;;;;;;-0.69;83.34;98278.88;4947639;29;20039;-41
2023/12/02 04:20:48;;;;;;;34.50;12.75;;;;;;;-0.50;83.37;98316.03;4947469;28;20094;-42
2023/12/02 04:23:16;;;;;;;31.40;12.38;;;;;;;-0.52;82.79;98316.91;4936790;28;20043;-40
2023/12/02 04:25:42;;;;;;;32.28;12.48;;;;;;;-0.52;82.67;98322.88;4949265;28;20522;-40
2023/12/02 04:28:08;;;;;;;31.73;11.80;;;;;;;-0.54;82.36;98323.75;4951521;28;20043;-40
2023/12/02 04:30:35;;;;;;;28.17;11.75;;;;;;;-0.65;81.21;98329.00;4936164;29;20530;-40
2023/12/02 04:33:01;;;;;;;28.15;11.93;;;;;;;-0.64;81.85;98335.78;4947576;28;20058;-41
2023/12/02 04:35:27;;;;;;;33.45;12.48;;;;;;;-0.62;81.73;98340.84;4950509;28;20051;-41
2023/12/02 04:37:52;;;;;;;35.58;12.23;;;;;;;-0.68;81.41;98334.13;4947680;28;20511;-40
2023/12/02 04:40:19;;;;;;;30.52;11.38;;;;;;;-0.63;81.36;98336.63;4951200;28;20098;-42
2023/12/02 04:42:45;;;;;;;30.25;11.38;;;;;;;-0.76;81.32;98307.00;4925353;29;20066;-40
2023/12/02 04:45:11;;;;;;;33.75;12.23;;;;;;;-0.57;81.06;98334.84;4950153;28;20480;-41
2023/12/02 04:47:37;;;;;;;29.20;11.82;;;;;;;-0.53;80.99;98341.63;4949402;28;20067;-40
2023/12/02 04:50:04;;;;;;;26.70;12.23;;;;;;;-0.68;80.56;98306.03;4951149;28;20085;-42
2023/12/02 04:52:31;;;;;;;30.40;11.10;;;;;;;-0.49;80.14;98350.91;4912578;28;22154;-41
2023/12/02 04:54:57;;;;;;;32.53;11.38;;;;;;;-0.66;80.31;98319.63;4949427;28;20051;-40
2023/12/02 04:57:22;;;;;;;29.90;10.60;;;;;;;-0.46;79.96;98352.56;4949813;28;20046;-41
2023/12/02 04:59:48;;;;;;;31.30;12.02;;;;;;;-0.44;79.66;98361.06;4931827;29;20045;-41
2023/12/02 05:02:15;;;;;;;30.10;11.80;;;;;;;-0.48;79.21;98356.88;4948791;28;20106;-42
2023/12/02 05:04:41;;;;;;;34.35;11.52;;;;;;;-0.66;79.23;98317.09;4950411;29;20043;-41
2023/12/02 05:07:06;;;;;;;28.08;11.73;;;;;;;-0.44;79.39;98361.91;4953049;28;20142;-41
2023/12/02 05:09:32;;;;;;;29.77;11.23;;;;;;;-0.58;78.97;98334.88;4952017;28;20039;-41
2023/12/02 05:11:58;;;;;;;30.45;11.18;;;;;;;-0.57;78.65;98342.50;4933240;29;20191;-41
2023/12/02 05:14:24;;;;;;;29.75;11.48;;;;;;;-0.43;78.55;98368.72;4949866;29;20430;-41
2023/12/02 05:16:50;;;;;;;30.63;12.07;;;;;;;-0.42;78.21;98367.84;4948830;28;20447;-41
2023/12/02 05:19:16;;;;;;;33.33;12.07;;;;;;;-0.61;78.15;98345.94;4952609;29;20054;-41
2023/12/02 05:21:41;;;;;;;30.70;12.13;;;;;;;-0.42;77.99;98383.16;4949942;28;20043;-41
2023/12/02 05:24:08;;;;;;;29.95;10.85;;;;;;;-0.43;78.45;98386.59;4947987;28;20050;-46
2023/12/02 05:26:35;;;;;;;29.40;12.27;;;;;;;-0.43;78.15;98393.41;4946462;28;20151;-41
2023/12/02 05:29:01;;;;;;;32.15;11.70;;;;;;;-0.39;77.89;98399.31;4937578;29;20039;-41
2023/12/02 05:31:27;;;;;;;28.73;11.23;;;;;;;-0.43;77.60;98395.97;4933515;29;20527;-42
2023/12/02 05:33:53;;;;;;;27.80;11.90;;;;;;;-0.43;77.70;98411.28;4949529;28;20046;-40
2023/12/02 05:36:20;;;;;;;26.90;11.88;;;;;;;-0.49;77.45;98409.63;4947433;28;20126;-41
2023/12/02 05:38:46;;;;;;;27.20;10.82;;;;;;;-0.48;77.08;98406.22;4948878;28;20122;-41
2023/12/02 05:41:11;;;;;;;31.05;11.32;;;;;;;-0.50;77.01;98417.28;4953073;28;20519;-41
2023/12/02 05:43:37;;;;;;;30.70;12.38;;;;;;;-0.50;76.61;98418.16;4916384;28;20043;-41
2023/12/02 05:46:03;;;;;;;27.00;10.93;;;;;;;-0.45;76.70;98407.88;4937036;29;20042;-41
2023/12/02 05:48:29;;;;;;;28.15;11.00;;;;;;;-0.42;76.09;98408.69;4949186;28;20066;-42
2023/12/02 05:50:55;;;;;;;28.25;11.98;;;;;;;-0.44;76.41;98407.88;4933417;28;20043;-42
2023/12/02 05:53:21;;;;;;;27.20;11.35;;;;;;;-0.38;76.00;98417.16;4933957;29;20163;-40
2023/12/02 05:55:47;;;;;;;30.45;12.25;;;;;;;-0.48;75.68;98395.16;4935159;29;20084;-41
2023/12/02 05:58:13;;;;;;;30.65;11.48;;;;;;;-0.33;75.83;98425.63;4936400;28;20071;-42
2023/12/02 06:00:39;;;;;;;27.23;11.13;;;;;;;-0.30;75.41;98432.38;4949157;28;20049;-42
2023/12/02 06:03:05;;;;;;;29.38;10.65;;;;;;;-0.35;75.14;98434.16;4920627;29;20047;-41
2023/12/02 06:05:31;;;;;;;25.02;10.70;;;;;;;-0.80;74.47;98381.91;4896431;29;20055;-42
2023/12/02 06:07:56;;;;;;;27.40;10.85;;;;;;;-0.51;74.39;98439.41;4930023;29;20585;-43
2023/12/02 06:10:22;;;;;;;27.60;10.32;;;;;;;-0.42;74.68;98448.72;4934986;29;20526;-41
2023/12/02 06:12:48;;;;;;;29.15;11.43;;;;;;;-0.48;74.15;98448.78;4933079;29;20430;-41
2023/12/02 06:15:14;;;;;;;27.58;10.88;;;;;;;-0.40;73.98;98462.28;4915612;29;20047;-41
2023/12/02 06:17:40;;;;;;;30.58;11.30;;;;;;;-0.67;73.94;98421.72;4933128;29;21513;-41
2023/12/02 06:20:09;;;;;;;27.25;11.57;;;;;;;-0.74;73.93;98398.00;4930212;29;20050;-41
2023/12/02 06:22:35;;;;;;;28.30;11.48;;;;;;;-0.27;73.88;98468.13;4917138;29;20530;-41
2023/12/02 06:25:01;;;;;;;30.65;11.60;;;;;;;-0.22;73.51;98451.88;4933251;28;20043;-40
2023/12/02 06:27:30;;;;;;;;;;;;;;;-0.20;73.57;98460.34;4948841;29;20185;-40
2023/12/02 06:29:56;;;;;;;30.08;11.50;;;;;;;-0.23;73.58;98468.06;4949248;28;20076;-43
2023/12/02 06:32:22;;;;;;;33.33;11.23;;;;;;;-0.19;73.44;98479.09;4948512;29;20066;-40
2023/12/02 06:34:48;;;;;;;24.55;10.68;;;;;;;-0.18;72.97;98491.84;4949792;29;20463;-41
2023/12/02 06:37:14;;;;;;;34.78;10.95;;;;;;;-0.27;72.94;98484.28;4949300;29;20045;-43
2023/12/02 06:39:40;;;;;;;28.52;11.02;;;;;;;-0.38;72.65;98472.50;4932221;28;20075;-40
2023/12/02 06:42:06;;;;;;;29.70;11.05;;;;;;;-0.49;73.21;98481.09;4949101;28;20666;-40
2023/12/02 06:44:32;;;;;;;30.13;11.73;;;;;;;-0.42;72.56;98487.00;4950187;29;20140;-40
2023/12/02 06:46:58;;;;;;;27.10;11.75;;;;;;;-0.55;72.98;98453.06;4919319;29;20045;-40
2023/12/02 06:49:24;;;;;;;30.52;11.38;;;;;;;-0.48;73.06;98449.63;4937286;29;20050;-41
2023/12/02 06:51:50;;;;;;;30.83;12.10;;;;;;;-0.18;72.72;98498.66;4940557;29;20043;-41
2023/12/02 06:54:16;;;;;;;35.05;12.00;;;;;;;-0.13;72.82;98496.91;4949075;29;20051;-41
2023/12/02 06:56:41;;;;;;;33.33;11.38;;;;;;;-0.07;72.51;98495.13;4949332;28;20066;-41
2023/12/02 06:59:07;;;;;;;29.15;11.88;;;;;;;-0.08;72.25;98478.09;4952709;28;20125;-41
2023/12/02 07:01:33;;;;;;;34.72;11.90;;;;;;;0.00;72.59;98485.69;4949190;29;20047;-41
2023/12/02 07:04:00;;;;;;;32.22;12.40;;;;;;;-0.11;72.38;98478.16;4948973;29;20050;-40
2023/12/02 07:06:27;;;;;;;37.58;13.75;;;;;;;0.06;71.96;98495.81;4948471;29;20035;-41
2023/12/02 07:08:54;;;;;;;32.30;12.20;;;;;;;0.14;72.46;98498.31;4935433;28;20130;-40
2023/12/02 07:11:21;;;;;;;27.05;12.52;;;;;;;0.00;71.98;98471.19;4928676;29;20044;-41
2023/12/02 07:13:48;;;;;;;31.15;12.70;;;;;;;0.22;71.95;98499.03;4948203;29;20054;-42
2023/12/02 07:16:14;;;;;;;32.72;12.68;;;;;;;0.23;71.52;98516.06;4931830;29;20043;-42
2023/12/02 07:18:40;;;;;;;34.08;12.48;;;;;;;0.20;71.56;98506.75;4918460;29;20054;-42
2023/12/02 07:21:07;;;;;;;30.63;12.43;;;;;;;0.19;71.42;98505.06;4917836;29;20047;-41
2023/12/02 07:23:34;;;;;;;34.90;12.02;;;;;;;0.05;71.27;98488.19;4918058;29;20647;-42
2023/12/02 07:26:00;;;;;;;34.53;11.95;;;;;;;0.30;71.21;98520.25;4899302;29;20031;-41
2023/12/02 07:28:26;;;;;;;37.13;13.05;;;;;;;0.33;71.30;98535.53;4930337;29;20046;-42
2023/12/02 07:30:52;;;;;;;28.95;11.02;;;;;;;0.36;70.89;98532.97;4947823;28;20047;-46
2023/12/02 07:33:21;;;;;;;35.03;12.75;;;;;;;0.39;71.24;98532.91;4936263;29;20050;-41
2023/12/02 07:35:47;;;;;;;29.05;11.65;;;;;;;0.50;70.50;98543.84;4917989;29;20050;-42
2023/12/02 07:38:13;;;;;;;31.23;10.95;;;;;;;0.56;70.34;98553.16;4914733;29;20047;-48
2023/12/02 07:40:40;;;;;;;31.48;11.93;;;;;;;0.40;70.45;98524.38;4946062;28;20039;-41
2023/12/02 07:43:06;;;;;;;29.67;11.82;;;;;;;0.61;70.15;98552.25;4932550;29;20518;-42
2023/12/02 07:45:32;;;;;;;28.40;11.55;;;;;;;0.57;69.78;98544.63;4932069;29;20066;-42
2023/12/02 07:47:57;;;;;;;29.13;12.23;;;;;;;0.73;69.85;98558.91;4934707;29;20122;-42
2023/12/02 07:50:23;;;;;;;25.30;10.73;;;;;;;0.75;69.49;98570.81;4912120;28;20145;-42
2023/12/02 07:52:49;;;;;;;30.83;11.07;;;;;;;0.74;69.45;98576.78;4951416;28;20046;-42
2023/12/02 07:55:15;;;;;;;36.17;12.63;;;;;;;0.78;69.08;98580.16;4939974;28;20192;-42
2023/12/02 07:57:42;;;;;;;27.90;11.88;;;;;;;0.81;68.95;98578.41;4921396;29;20133;-41
2023/12/02 08:00:08;;;;;;;26.70;11.02;;;;;;;0.89;68.67;98588.53;4938427;28;20047;-42
2023/12/02 08:02:40;;;;;;;29.27;11.50;;;;;;;0.91;68.20;98594.47;4921903;29;20039;-41
2023/12/02 08:05:06;;;;;;;27.05;10.40;;;;;;;0.69;67.87;98559.81;4953332;29;20073;-43
2023/12/02 08:07:32;;;;;;;31.25;12.05;;;;;;;0.73;67.92;98595.53;4935009;29;20050;-41
2023/12/02 08:09:58;;;;;;;28.27;11.77;;;;;;;0.85;68.00;98599.66;4920209;28;20052;-41
2023/12/02 08:12:24;;;;;;;28.33;10.93;;;;;;;0.93;67.95;98612.38;4952301;29;20039;-42
2023/12/02 08:14:50;;;;;;;27.35;10.68;;;;;;;0.66;67.58;98575.19;4923449;29;20058;-43
2023/12/02 08:17:17;;;;;;;25.10;10.63;;;;;;;0.72;67.35;98583.66;4934423;29;20466;-41
2023/12/02 08:19:43;;;;;;;26.63;10.77;;;;;;;1.18;67.34;98608.59;4937507;29;20043;-42
2023/12/02 08:22:09;;;;;;;25.73;10.48;;;;;;;1.37;66.96;98610.03;4912854;29;20086;-41
2023/12/02 08:24:42;;;;;;;30.88;10.98;;;;;;;1.49;66.54;98609.84;4952202;29;20523;-42
2023/12/02 08:27:09;;;;;;;29.30;11.45;;;;;;;1.12;65.66;98570.28;4936527;29;20430;-41
2023/12/02 08:29:35;;;;;;;31.75;12.82;;;;;;;1.24;65.94;98611.09;4922015;28;20042;-43
2023/12/02 08:32:01;;;;;;;30.00;12.98;;;;;;;1.45;65.68;98594.56;4935068;29;20035;-41
2023/12/02 08:34:27;;;;;;;30.30;12.02;;;;;;;1.99;65.04;98606.44;4939400;29;20652;-42
2023/12/02 08:36:53;;;;;;;26.17;10.77;;;;;;;2.31;64.32;98598.19;4936614;29;20043;-41
2023/12/02 08:39:19;;;;;;;27.92;11.45;;;;;;;2.76;63.50;98622.13;4951078;29;20105;-42
2023/12/02 08:41:45;;;;;;;33.70;11.93;;;;;;;2.66;63.32;98620.63;4925488;29;20129;-40
2023/12/02 08:44:12;;;;;;;30.60;11.38;;;;;;;2.50;63.16;98626.91;4936074;29;20077;-44
2023/12/02 08:46:40;;;;;;;29.92;11.40;;;;;;;2.33;63.24;98629.78;4934051;29;20047;-41
2023/12/02 08:49:06;;;;;;;21.83;10.70;;;;;;;1.98;63.22;98632.13;4953015;29;20059;-45
2023/12/02 08:51:32;;;;;;;26.40;11.13;;;;;;;1.51;63.32;98627.75;4951690;28;20074;-42
2023/12/02 08:53:59;;;;;;;29.63;11.77;;;;;;;1.40;64.28;98634.75;4918186;29;20791;-47
2023/12/02 08:56:28;;;;;;;26.33;11.07;;;;;;;1.21;63.91;98635.00;4948743;28;20039;-43
2023/12/02 08:58:55;;;;;;;21.65;9.73;;;;;;;0.73;63.78;98580.19;4950583;29;20047;-45
2023/12/02 09:01:21;;;;;;;26.25;9.60;;;;;;;0.78;63.77;98639.84;4954416;28;20055;-46
2023/12/02 09:03:47;;;;;;;23.63;8.98;;;;;;;0.63;64.28;98619.53;4950389;29;20156;-46
2023/12/02 09:06:13;;;;;;;23.05;9.70;;;;;;;0.83;64.21;98648.31;4937925;29;20067;-42
2023/12/02 09:08:39;;;;;;;22.77;8.77;;;;;;;0.84;63.90;98626.97;4938234;29;20039;-42
2023/12/02 09:11:05;;;;;;;22.45;9.70;;;;;;;1.18;64.27;98650.41;4933884;29;20502;-43
2023/12/02 09:13:43;;;;;;;22.55;9.55;;;;;;;1.35;64.34;98647.63;4919105;29;20047;-42
2023/12/02 09:16:27;;;;;;;26.23;10.70;;;;;;;1.46;64.04;98650.88;4947656;29;20059;-43
2023/12/02 09:18:54;;;;;;;31.20;11.27;;;;;;;1.42;63.68;98653.47;4952109;29;20502;-45
2023/12/02 09:21:44;;;;;;;28.85;12.40;;;;;;;1.11;64.23;98646.22;4934524;29;20053;-44
2023/12/02 09:24:38;;;;;;;29.58;9.65;;;;;;;1.10;64.22;98659.88;4951146;28;20039;-44
2023/12/02 09:27:05;;;;;;;27.30;9.90;;;;;;;0.64;64.19;98658.75;4908994;29;20072;-44
2023/12/02 09:29:34;;;;;;;26.27;9.75;;;;;;;0.39;65.10;98653.06;4948845;29;20046;-45
2023/12/02 09:32:09;;;;;;;25.25;10.05;;;;;;;0.30;64.83;98654.00;4950031;28;20038;-43
2023/12/02 09:34:56;;;;;;;25.00;9.85;;;;;;;0.08;65.33;98667.84;4938455;29;20051;-43
2023/12/02 09:37:58;;;;;;;28.25;9.32;;;;;;;-0.08;65.08;98656.91;4922708;29;20066;-43
2023/12/02 09:40:52;;;;;;;24.75;9.02;;;;;;;-0.07;65.38;98663.72;4924516;29;20070;-42
2023/12/02 09:43:33;;;;;;;28.73;10.43;;;;;;;0.05;65.43;98673.00;4952055;28;20047;-42
2023/12/02 09:46:06;;;;;;;24.38;9.00;;;;;;;0.09;64.89;98681.47;4922427;29;20065;-42
2023/12/02 09:48:34;;;;;;;21.52;8.20;;;;;;;0.05;64.73;98680.66;4937927;29;20043;-43
2023/12/02 09:51:06;;;;;;;29.60;9.50;;;;;;;0.16;64.88;98678.84;4935970;28;20134;-43
2023/12/02 09:53:50;;;;;;;21.48;9.45;;;;;;;0.18;64.59;98674.56;4951134;28;20796;-42
2023/12/02 09:56:20;;;;;;;27.05;10.27;;;;;;;0.39;64.40;98676.91;4904038;29;20043;-44
2023/12/02 09:58:47;;;;;;;23.13;9.05;;;;;;;0.35;63.62;98644.59;4937029;29;20118;-44
2023/12/02 10:01:40;;;;;;;25.70;10.48;;;;;;;0.60;63.91;98670.72;4921902;28;20057;-44
2023/12/02 10:04:12;;;;;;;24.48;8.73;;;;;;;0.79;63.67;98677.31;4949277;28;20609;-44
2023/12/02 10:06:51;;;;;;;20.55;8.55;;;;;;;0.59;63.52;98674.16;4949064;29;20073;-42
2023/12/02 10:09:27;;;;;;;26.10;9.65;;;;;;;0.49;64.04;98675.13;4936160;29;20047;-44
2023/12/02 10:12:46;;;;;;;19.88;7.95;;;;;;;0.34;64.04;98682.94;4949499;28;20049;-43
2023/12/02 10:15:12;;;;;;;18.33;7.15;;;;;;;0.19;63.93;98681.38;4921598;29;20566;-43
2023/12/02 10:17:52;;;;;;;19.70;8.27;;;;;;;0.05;64.29;98682.38;4947784;29;20066;-44
2023/12/02 10:20:22;;;;;;;22.50;9.52;;;;;;;0.13;64.13;98680.56;4948805;29;20556;-42
2023/12/02 10:22:49;;;;;;;24.58;9.35;;;;;;;0.16;64.04;98678.00;4905697;29;20135;-43
2023/12/02 10:25:31;;;;;;;22.67;9.88;;;;;;;0.31;64.00;98680.41;4920971;29;20422;-43
2023/12/02 10:28:05;;;;;;;27.00;8.68;;;;;;;0.30;63.96;98688.94;4950623;28;20533;-43
2023/12/02 10:30:38;;;;;;;23.48;9.13;;;;;;;0.17;63.99;98685.66;4948087;28;20093;-42
2023/12/02 10:33:10;;;;;;;21.95;8.02;;;;;;;0.12;64.05;98695.06;4948940;28;20051;-43
2023/12/02 10:35:42;;;;;;;22.27;8.02;;;;;;;-0.03;64.31;98696.03;4922652;29;20518;-41
2023/12/02 10:38:17;;;;;;;25.40;10.15;;;;;;;-0.16;64.75;98703.81;4949064;29;20055;-43
2023/12/02 10:40:56;;;;;;;25.38;10.25;;;;;;;0.69;64.05;98706.44;4935325;29;20035;-42
2023/12/02 10:43:30;;;;;;;22.52;9.77;;;;;;;0.78;63.84;98705.50;4899326;29;20432;-42
2023/12/02 10:45:56;;;;;;;18.02;8.45;;;;;;;1.37;62.49;98674.03;4933432;29;20044;-43
2023/12/02 10:48:22;;;;;;;19.80;8.55;;;;;;;1.35;61.96;98710.78;4929670;29;20094;-43
2023/12/02 10:50:49;;;;;;;19.20;8.43;;;;;;;1.19;61.88;98703.31;4934053;29;20507;-44
2023/12/02 10:53:17;;;;;;;21.67;8.85;;;;;;;0.89;62.48;98718.19;4950687;28;20507;-44
2023/12/02 10:55:46;;;;;;;22.40;9.20;;;;;;;0.87;62.46;98715.63;4936144;29;20039;-43
2023/12/02 10:58:12;;;;;;;22.17;8.88;;;;;;;0.88;62.74;98703.69;4920034;29;20074;-44
2023/12/02 11:00:39;;;;;;;23.05;8.68;;;;;;;0.64;62.39;98653.63;4914891;29;20038;-43
2023/12/02 11:03:06;;;;;;;19.10;7.97;;;;;;;0.90;62.61;98722.41;4947751;28;20034;-42
2023/12/02 11:05:56;;;;;;;26.20;10.02;;;;;;;0.93;62.70;98718.13;4936437;29;20460;-44
2023/12/02 11:09:06;;;;;;;16.80;7.45;;;;;;;0.89;62.48;98724.13;4918602;29;20039;-41
2023/12/02 11:11:59;;;;;;;21.42;9.40;;;;;;;0.78;62.48;98736.19;4883672;29;20053;-43
2023/12/02 11:14:26;;;;;;;22.25;8.88;;;;;;;0.72;62.49;98734.56;4949232;28;20123;-43
2023/12/02 11:17:01;;;;;;;17.98;7.75;;;;;;;0.61;62.64;98743.19;4902713;29;20047;-43
2023/12/02 11:19:27;;;;;;;21.27;9.10;;;;;;;0.70;63.04;98741.38;4948508;29;20278;-44
2023/12/02 11:22:17;;;;;;;20.10;9.15;;;;;;;0.72;62.64;98749.91;4948395;29;20077;-44